All
Halmstad Airport (Halmstad) HAD Weather
|
Halmstad (HAD / ESMT)
Clear skies
Light winds |
|
59 °F |
HAD Terminal Area Forecast
| Date | Time (CEST) | Flight Rules | Wind Dir. | Speed | Type | Height AGL (ft) | Visibility | Remarks | ||||||
|---|---|---|---|---|---|---|---|---|---|---|---|---|---|---|
Recent HAD METAR history
| Date | Time (CEST) | Flight Rules | Wind Dir. | Speed | Type | Height AGL (ft) | Visibility | Temp (°C) | Temp (°F) | Dew Point (°C) | Dew Point (°F) | Rel. Humid. | Pressure | Density Altitude | Remarks |
|---|---|---|---|---|---|---|---|---|---|---|---|---|---|---|---|
| 09-May | 11:50AM | VFR | 50° | 6 kt | 10000 meters | 15° | 59° | -7° | 19° | 21% | 1024 mb | -218 ft | |||
| 09-May | 11:20AM | VFR | 60° | 5 kt | 10000 meters | 15° | 59° | -5° | 23° | 25% | 1024 mb | -218 ft | Wind gusting to 20 KT | ||
| 09-May | 10:50AM | VFR | 30° | 5 kt | 10000 meters | 14° | 57° | -3° | 26° | 31% | 1024 mb | -338 ft | |||
| 09-May | 10:20AM | VFR | 40° | 7 kt | 10000 meters | 14° | 57° | -2° | 28° | 33% | 1024 mb | -338 ft | |||
| 09-May | 09:50AM | VFR | 80° | 6 kt | 10000 meters | 13° | 55° | -5° | 23° | 28% | 1024 mb | -458 ft | |||
| 09-May | 09:20AM | VFR | 30° | 6 kt | 10000 meters | 12° | 53° | -2° | 28° | 38% | 1024 mb | -578 ft | |||
| 09-May | 08:50AM | VFR | 50° | 4 kt | 10000 meters | 12° | 53° | -3° | 26° | 35% | 1025 mb | -607 ft | |||
| 09-May | 08:20AM | VFR | Variable | 3 kt | 10000 meters | 11° | 51° | -4° | 24° | 35% | 1025 mb | -727 ft | |||
| 09-May | 07:50AM | VFR | 100° | 4 kt | 10000 meters | 8° | 46° | -1° | 30° | 53% | 1025 mb | -1,087 ft | |||
| 09-May | 07:20AM | VFR | 60° | 3 kt | 10000 meters | 6° | 42° | 0° | 32° | 65% | 1025 mb | -1,327 ft | |||
| 09-May | 06:50AM | VFR | 60° | 6 kt | 10000 meters | 5° | 41° | 0° | 32° | 70% | 1025 mb | -1,447 ft | |||
| 09-May | 06:20AM | VFR | 80° | 6 kt | 10000 meters | 2° | 35° | -2° | 28° | 75% | 1024 mb | -1,778 ft | |||
| 09-May | 05:50AM | VFR | 70° | 5 kt | 10000 meters | 1° | 33° | -3° | 26° | 75% | 1025 mb | -1,927 ft | |||
| 09-May | 05:20AM | VFR | 90° | 4 kt | 10000 meters | -1° | 30° | -4° | 24° | 80% | 1025 mb | -2,167 ft | |||
| 09-May | 04:50AM | VFR | 20° | 5 kt | 10000 meters | 0° | 32° | -3° | 26° | 80% | 1025 mb | -2,047 ft | |||
| 09-May | 04:20AM | VFR | 70° | 5 kt | 10000 meters | -1° | 30° | -3° | 26° | 86% | 1025 mb | -2,167 ft | |||
| 09-May | 03:50AM | VFR | 60° | 3 kt | 10000 meters | -1° | 30° | -4° | 24° | 80% | 1025 mb | -2,167 ft | |||
| 09-May | 03:20AM | VFR | Variable | 3 kt | 10000 meters | -1° | 30° | -4° | 24° | 80% | 1025 mb | -2,167 ft | |||
| 09-May | 02:50AM | VFR | 110° | 5 kt | 10000 meters | 3° | 37° | -1° | 30° | 75% | 1025 mb | -1,687 ft | |||
| 09-May | 02:20AM | VFR | 70° | 3 kt | 10000 meters | 1° | 33° | -2° | 28° | 80% | 1025 mb | -1,927 ft | |||
| 09-May | 01:50AM | VFR | 50° | 3 kt | 10000 meters | 1° | 33° | -1° | 30° | 86% | 1025 mb | -1,927 ft | |||
| 09-May | 01:20AM | VFR | 80° | 4 kt | 10000 meters | 2° | 35° | 0° | 32° | 87% | 1025 mb | -1,807 ft | |||
| 09-May | 12:50AM | VFR | Variable | 3 kt | 10000 meters | 0° | 32° | -2° | 28° | 86% | 1025 mb | -2,047 ft | |||
| 09-May | 12:20AM | VFR | 40° | 3 kt | 10000 meters | 4° | 39° | 0° | 32° | 75% | 1025 mb | -1,567 ft |
Login
| Your browser is unsupported. upgrade your browser |
